sensor_id;sensor_type;location;lat;lon;timestamp;P1;durP1;ratioP1;P2;durP2;ratioP2
16442;SDS011;8331;51.654;14.376;2023-05-07T00:00:18;11.63;;;10.60;;
16442;SDS011;8331;51.654;14.376;2023-05-07T00:02:45;11.60;;;10.50;;
16442;SDS011;8331;51.654;14.376;2023-05-07T00:05:13;10.83;;;9.93;;
16442;SDS011;8331;51.654;14.376;2023-05-07T00:07:40;11.40;;;10.37;;
16442;SDS011;8331;51.654;14.376;2023-05-07T00:10:07;11.27;;;9.97;;
16442;SDS011;8331;51.654;14.376;2023-05-07T00:12:35;9.80;;;8.90;;
16442;SDS011;8331;51.654;14.376;2023-05-07T00:15:02;10.27;;;9.47;;
16442;SDS011;8331;51.654;14.376;2023-05-07T00:17:29;8.60;;;8.00;;
16442;SDS011;8331;51.654;14.376;2023-05-07T00:19:56;9.93;;;9.03;;
16442;SDS011;8331;51.654;14.376;2023-05-07T00:22:23;9.00;;;8.40;;
16442;SDS011;8331;51.654;14.376;2023-05-07T00:24:49;9.90;;;9.10;;
16442;SDS011;8331;51.654;14.376;2023-05-07T00:27:16;9.47;;;8.67;;
16442;SDS011;8331;51.654;14.376;2023-05-07T00:29:42;9.17;;;8.40;;
16442;SDS011;8331;51.654;14.376;2023-05-07T00:32:09;9.10;;;8.30;;
16442;SDS011;8331;51.654;14.376;2023-05-07T00:34:35;9.97;;;9.07;;
16442;SDS011;8331;51.654;14.376;2023-05-07T00:37:02;9.67;;;8.77;;
16442;SDS011;8331;51.654;14.376;2023-05-07T00:39:31;9.60;;;8.80;;
16442;SDS011;8331;51.654;14.376;2023-05-07T00:41:58;9.33;;;8.63;;
16442;SDS011;8331;51.654;14.376;2023-05-07T00:44:25;9.90;;;9.10;;
16442;SDS011;8331;51.654;14.376;2023-05-07T00:46:51;9.30;;;8.50;;
16442;SDS011;8331;51.654;14.376;2023-05-07T00:49:18;8.93;;;8.23;;
16442;SDS011;8331;51.654;14.376;2023-05-07T00:51:45;9.17;;;8.47;;
16442;SDS011;8331;51.654;14.376;2023-05-07T00:54:12;9.57;;;8.87;;
16442;SDS011;8331;51.654;14.376;2023-05-07T00:56:39;9.97;;;9.27;;
16442;SDS011;8331;51.654;14.376;2023-05-07T00:59:06;9.43;;;8.63;;
16442;SDS011;8331;51.654;14.376;2023-05-07T01:01:33;10.07;;;9.27;;
16442;SDS011;8331;51.654;14.376;2023-05-07T01:04:00;10.10;;;9.30;;
16442;SDS011;8331;51.654;14.376;2023-05-07T01:06:27;10.00;;;9.10;;
16442;SDS011;8331;51.654;14.376;2023-05-07T01:08:55;9.40;;;8.70;;
16442;SDS011;8331;51.654;14.376;2023-05-07T01:11:23;9.90;;;9.20;;
16442;SDS011;8331;51.654;14.376;2023-05-07T01:13:51;9.57;;;8.67;;
16442;SDS011;8331;51.654;14.376;2023-05-07T01:16:18;10.13;;;9.33;;
16442;SDS011;8331;51.654;14.376;2023-05-07T01:18:45;9.17;;;8.47;;
16442;SDS011;8331;51.654;14.376;2023-05-07T01:21:15;10.47;;;9.47;;
16442;SDS011;8331;51.654;14.376;2023-05-07T01:23:43;10.87;;;9.90;;
16442;SDS011;8331;51.654;14.376;2023-05-07T01:26:10;10.53;;;9.60;;
16442;SDS011;8331;51.654;14.376;2023-05-07T01:28:37;11.07;;;9.90;;
16442;SDS011;8331;51.654;14.376;2023-05-07T01:31:03;9.50;;;8.70;;
16442;SDS011;8331;51.654;14.376;2023-05-07T01:33:34;10.07;;;9.07;;
16442;SDS011;8331;51.654;14.376;2023-05-07T01:36:01;10.93;;;9.57;;
16442;SDS011;8331;51.654;14.376;2023-05-07T01:38:32;10.23;;;9.43;;
16442;SDS011;8331;51.654;14.376;2023-05-07T01:40:59;9.43;;;8.73;;
16442;SDS011;8331;51.654;14.376;2023-05-07T01:43:26;10.70;;;9.70;;
16442;SDS011;8331;51.654;14.376;2023-05-07T01:45:53;9.90;;;9.00;;
16442;SDS011;8331;51.654;14.376;2023-05-07T01:48:20;9.93;;;9.03;;
16442;SDS011;8331;51.654;14.376;2023-05-07T01:50:47;10.50;;;9.60;;
16442;SDS011;8331;51.654;14.376;2023-05-07T01:53:14;9.43;;;8.63;;
16442;SDS011;8331;51.654;14.376;2023-05-07T01:55:41;9.40;;;8.60;;
16442;SDS011;8331;51.654;14.376;2023-05-07T01:58:08;9.93;;;9.13;;
16442;SDS011;8331;51.654;14.376;2023-05-07T02:00:35;9.50;;;8.70;;
16442;SDS011;8331;51.654;14.376;2023-05-07T02:03:04;10.10;;;9.30;;
16442;SDS011;8331;51.654;14.376;2023-05-07T02:05:43;10.63;;;9.57;;
16442;SDS011;8331;51.654;14.376;2023-05-07T02:08:32;9.87;;;9.07;;
16442;SDS011;8331;51.654;14.376;2023-05-07T02:10:59;11.13;;;9.87;;
16442;SDS011;8331;51.654;14.376;2023-05-07T02:13:28;9.80;;;8.90;;
16442;SDS011;8331;51.654;14.376;2023-05-07T02:15:56;11.77;;;10.57;;
16442;SDS011;8331;51.654;14.376;2023-05-07T02:18:24;10.73;;;9.83;;
16442;SDS011;8331;51.654;14.376;2023-05-07T02:20:50;10.30;;;9.30;;
16442;SDS011;8331;51.654;14.376;2023-05-07T02:23:17;10.97;;;10.07;;
16442;SDS011;8331;51.654;14.376;2023-05-07T02:25:44;11.17;;;10.13;;
16442;SDS011;8331;51.654;14.376;2023-05-07T02:28:10;11.10;;;10.10;;
16442;SDS011;8331;51.654;14.376;2023-05-07T02:30:53;11.87;;;10.67;;
16442;SDS011;8331;51.654;14.376;2023-05-07T02:33:20;12.50;;;11.33;;
16442;SDS011;8331;51.654;14.376;2023-05-07T02:35:47;11.67;;;10.53;;
16442;SDS011;8331;51.654;14.376;2023-05-07T02:38:15;13.63;;;12.23;;
16442;SDS011;8331;51.654;14.376;2023-05-07T02:40:42;12.13;;;11.03;;
16442;SDS011;8331;51.654;14.376;2023-05-07T02:43:09;12.33;;;11.23;;
16442;SDS011;8331;51.654;14.376;2023-05-07T02:45:36;13.07;;;11.77;;
16442;SDS011;8331;51.654;14.376;2023-05-07T02:48:06;12.70;;;11.53;;
16442;SDS011;8331;51.654;14.376;2023-05-07T02:50:33;13.80;;;12.40;;
16442;SDS011;8331;51.654;14.376;2023-05-07T02:52:59;14.10;;;12.50;;
16442;SDS011;8331;51.654;14.376;2023-05-07T02:55:26;16.87;;;14.97;;
16442;SDS011;8331;51.654;14.376;2023-05-07T02:57:53;15.27;;;13.73;;
16442;SDS011;8331;51.654;14.376;2023-05-07T03:00:19;15.30;;;13.37;;
16442;SDS011;8331;51.654;14.376;2023-05-07T03:03:03;13.70;;;12.13;;
16442;SDS011;8331;51.654;14.376;2023-05-07T03:05:30;14.50;;;12.97;;
16442;SDS011;8331;51.654;14.376;2023-05-07T03:07:57;15.03;;;13.60;;
16442;SDS011;8331;51.654;14.376;2023-05-07T03:10:23;15.87;;;14.17;;
16442;SDS011;8331;51.654;14.376;2023-05-07T03:12:50;15.00;;;13.40;;
16442;SDS011;8331;51.654;14.376;2023-05-07T03:15:17;16.40;;;14.20;;
16442;SDS011;8331;51.654;14.376;2023-05-07T03:17:43;16.13;;;14.43;;
16442;SDS011;8331;51.654;14.376;2023-05-07T03:20:10;17.57;;;15.10;;
16442;SDS011;8331;51.654;14.376;2023-05-07T03:22:39;15.90;;;14.20;;
16442;SDS011;8331;51.654;14.376;2023-05-07T03:25:06;16.27;;;13.47;;
16442;SDS011;8331;51.654;14.376;2023-05-07T03:27:33;16.77;;;13.93;;
16442;SDS011;8331;51.654;14.376;2023-05-07T03:29:59;15.93;;;14.20;;
16442;SDS011;8331;51.654;14.376;2023-05-07T03:32:26;18.13;;;14.83;;
16442;SDS011;8331;51.654;14.376;2023-05-07T03:34:53;17.03;;;15.23;;
16442;SDS011;8331;51.654;14.376;2023-05-07T03:37:20;16.03;;;14.20;;
16442;SDS011;8331;51.654;14.376;2023-05-07T03:39:48;16.20;;;13.77;;
16442;SDS011;8331;51.654;14.376;2023-05-07T03:42:15;16.60;;;14.63;;
16442;SDS011;8331;51.654;14.376;2023-05-07T03:44:42;19.13;;;14.97;;
16442;SDS011;8331;51.654;14.376;2023-05-07T03:47:08;17.47;;;15.20;;
16442;SDS011;8331;51.654;14.376;2023-05-07T03:49:36;17.63;;;15.90;;
16442;SDS011;8331;51.654;14.376;2023-05-07T03:52:03;18.07;;;15.60;;
16442;SDS011;8331;51.654;14.376;2023-05-07T03:54:30;17.47;;;15.77;;
16442;SDS011;8331;51.654;14.376;2023-05-07T03:56:57;20.43;;;16.30;;
16442;SDS011;8331;51.654;14.376;2023-05-07T03:59:24;18.13;;;15.73;;
16442;SDS011;8331;51.654;14.376;2023-05-07T04:01:51;16.83;;;15.03;;
16442;SDS011;8331;51.654;14.376;2023-05-07T04:04:20;16.20;;;14.50;;
16442;SDS011;8331;51.654;14.376;2023-05-07T04:06:47;16.90;;;14.30;;
16442;SDS011;8331;51.654;14.376;2023-05-07T04:09:14;15.87;;;13.70;;
16442;SDS011;8331;51.654;14.376;2023-05-07T04:11:41;15.03;;;13.40;;
16442;SDS011;8331;51.654;14.376;2023-05-07T04:14:09;16.90;;;13.23;;
16442;SDS011;8331;51.654;14.376;2023-05-07T04:16:36;15.60;;;13.87;;
16442;SDS011;8331;51.654;14.376;2023-05-07T04:19:03;15.30;;;13.70;;
16442;SDS011;8331;51.654;14.376;2023-05-07T04:21:30;14.67;;;13.20;;
16442;SDS011;8331;51.654;14.376;2023-05-07T04:23:58;15.63;;;14.00;;
16442;SDS011;8331;51.654;14.376;2023-05-07T04:26:24;17.70;;;13.57;;
16442;SDS011;8331;51.654;14.376;2023-05-07T04:28:51;14.70;;;13.23;;
16442;SDS011;8331;51.654;14.376;2023-05-07T04:31:17;13.90;;;12.70;;
16442;SDS011;8331;51.654;14.376;2023-05-07T04:33:48;15.90;;;13.20;;
16442;SDS011;8331;51.654;14.376;2023-05-07T04:36:15;14.93;;;13.33;;
16442;SDS011;8331;51.654;14.376;2023-05-07T04:38:57;14.93;;;13.27;;
16442;SDS011;8331;51.654;14.376;2023-05-07T04:41:23;15.33;;;13.73;;
16442;SDS011;8331;51.654;14.376;2023-05-07T04:43:50;14.87;;;13.17;;
16442;SDS011;8331;51.654;14.376;2023-05-07T04:46:20;14.10;;;12.63;;
16442;SDS011;8331;51.654;14.376;2023-05-07T04:48:48;14.17;;;12.77;;
16442;SDS011;8331;51.654;14.376;2023-05-07T04:51:15;14.00;;;12.60;;
16442;SDS011;8331;51.654;14.376;2023-05-07T04:53:41;13.33;;;12.03;;
16442;SDS011;8331;51.654;14.376;2023-05-07T04:56:09;11.83;;;10.73;;
16442;SDS011;8331;51.654;14.376;2023-05-07T04:58:40;12.80;;;11.63;;
16442;SDS011;8331;51.654;14.376;2023-05-07T05:01:07;13.27;;;11.97;;
16442;SDS011;8331;51.654;14.376;2023-05-07T05:03:34;12.90;;;11.60;;
16442;SDS011;8331;51.654;14.376;2023-05-07T05:06:01;12.93;;;11.73;;
16442;SDS011;8331;51.654;14.376;2023-05-07T05:08:31;11.73;;;10.73;;
16442;SDS011;8331;51.654;14.376;2023-05-07T05:11:00;11.00;;;10.10;;
16442;SDS011;8331;51.654;14.376;2023-05-07T05:13:27;11.47;;;10.27;;
16442;SDS011;8331;51.654;14.376;2023-05-07T05:15:54;11.83;;;10.40;;
16442;SDS011;8331;51.654;14.376;2023-05-07T05:18:22;11.90;;;10.70;;
16442;SDS011;8331;51.654;14.376;2023-05-07T05:20:49;12.77;;;11.67;;
16442;SDS011;8331;51.654;14.376;2023-05-07T05:23:16;12.50;;;11.30;;
16442;SDS011;8331;51.654;14.376;2023-05-07T05:25:43;12.53;;;11.40;;
16442;SDS011;8331;51.654;14.376;2023-05-07T05:28:12;12.37;;;11.17;;
16442;SDS011;8331;51.654;14.376;2023-05-07T05:30:39;11.50;;;10.50;;
16442;SDS011;8331;51.654;14.376;2023-05-07T05:33:07;12.77;;;11.33;;
16442;SDS011;8331;51.654;14.376;2023-05-07T05:35:33;11.80;;;10.70;;
16442;SDS011;8331;51.654;14.376;2023-05-07T05:38:04;10.63;;;9.73;;
16442;SDS011;8331;51.654;14.376;2023-05-07T05:40:32;10.47;;;9.57;;
16442;SDS011;8331;51.654;14.376;2023-05-07T05:42:59;10.73;;;9.90;;
16442;SDS011;8331;51.654;14.376;2023-05-07T05:45:27;10.77;;;9.87;;
16442;SDS011;8331;51.654;14.376;2023-05-07T05:47:55;10.50;;;9.57;;
16442;SDS011;8331;51.654;14.376;2023-05-07T05:50:22;10.67;;;9.77;;
16442;SDS011;8331;51.654;14.376;2023-05-07T05:52:49;11.80;;;10.80;;
16442;SDS011;8331;51.654;14.376;2023-05-07T05:55:17;11.73;;;10.63;;
16442;SDS011;8331;51.654;14.376;2023-05-07T05:57:44;12.07;;;11.07;;
16442;SDS011;8331;51.654;14.376;2023-05-07T06:00:11;12.27;;;11.13;;
16442;SDS011;8331;51.654;14.376;2023-05-07T06:02:44;12.60;;;11.43;;
16442;SDS011;8331;51.654;14.376;2023-05-07T06:05:16;13.27;;;11.83;;
16442;SDS011;8331;51.654;14.376;2023-05-07T06:07:44;11.67;;;10.67;;
16442;SDS011;8331;51.654;14.376;2023-05-07T06:10:11;12.60;;;11.30;;
16442;SDS011;8331;51.654;14.376;2023-05-07T06:12:39;13.43;;;12.10;;
16442;SDS011;8331;51.654;14.376;2023-05-07T06:15:06;13.00;;;11.80;;
16442;SDS011;8331;51.654;14.376;2023-05-07T06:17:33;12.93;;;11.80;;
16442;SDS011;8331;51.654;14.376;2023-05-07T06:20:00;13.77;;;12.47;;
16442;SDS011;8331;51.654;14.376;2023-05-07T06:22:27;13.57;;;12.20;;
16442;SDS011;8331;51.654;14.376;2023-05-07T06:24:54;14.60;;;13.10;;
16442;SDS011;8331;51.654;14.376;2023-05-07T06:27:22;13.53;;;12.20;;
16442;SDS011;8331;51.654;14.376;2023-05-07T06:29:49;13.43;;;12.13;;
16442;SDS011;8331;51.654;14.376;2023-05-07T06:32:16;17.20;;;12.27;;
16442;SDS011;8331;51.654;14.376;2023-05-07T06:34:44;13.13;;;11.80;;
16442;SDS011;8331;51.654;14.376;2023-05-07T06:37:12;14.00;;;12.70;;
16442;SDS011;8331;51.654;14.376;2023-05-07T06:40:11;13.70;;;12.40;;
16442;SDS011;8331;51.654;14.376;2023-05-07T06:42:39;14.10;;;12.80;;
16442;SDS011;8331;51.654;14.376;2023-05-07T06:45:27;12.20;;;11.10;;
16442;SDS011;8331;51.654;14.376;2023-05-07T06:47:55;11.97;;;10.77;;
16442;SDS011;8331;51.654;14.376;2023-05-07T06:50:23;12.30;;;11.20;;
16442;SDS011;8331;51.654;14.376;2023-05-07T06:52:53;12.47;;;11.30;;
16442;SDS011;8331;51.654;14.376;2023-05-07T06:55:19;12.23;;;10.97;;
16442;SDS011;8331;51.654;14.376;2023-05-07T06:57:46;12.93;;;11.60;;
16442;SDS011;8331;51.654;14.376;2023-05-07T07:00:14;12.03;;;10.93;;
16442;SDS011;8331;51.654;14.376;2023-05-07T07:02:47;12.10;;;10.87;;
16442;SDS011;8331;51.654;14.376;2023-05-07T07:05:16;12.63;;;11.43;;
16442;SDS011;8331;51.654;14.376;2023-05-07T07:07:43;12.30;;;11.20;;
16442;SDS011;8331;51.654;14.376;2023-05-07T07:10:10;12.70;;;11.50;;
16442;SDS011;8331;51.654;14.376;2023-05-07T07:12:36;13.30;;;12.00;;
16442;SDS011;8331;51.654;14.376;2023-05-07T07:15:03;13.27;;;11.97;;
16442;SDS011;8331;51.654;14.376;2023-05-07T07:17:30;12.83;;;11.63;;
16442;SDS011;8331;51.654;14.376;2023-05-07T07:19:57;14.00;;;12.60;;
16442;SDS011;8331;51.654;14.376;2023-05-07T07:22:23;13.50;;;12.10;;
16442;SDS011;8331;51.654;14.376;2023-05-07T07:24:50;13.30;;;11.97;;
16442;SDS011;8331;51.654;14.376;2023-05-07T07:27:17;13.93;;;12.50;;
16442;SDS011;8331;51.654;14.376;2023-05-07T07:29:44;12.77;;;11.57;;
16442;SDS011;8331;51.654;14.376;2023-05-07T07:32:10;12.47;;;11.17;;
16442;SDS011;8331;51.654;14.376;2023-05-07T07:34:37;11.43;;;10.53;;
16442;SDS011;8331;51.654;14.376;2023-05-07T07:37:05;10.87;;;9.90;;
16442;SDS011;8331;51.654;14.376;2023-05-07T07:39:34;10.43;;;9.60;;
16442;SDS011;8331;51.654;14.376;2023-05-07T07:42:01;12.10;;;9.70;;
16442;SDS011;8331;51.654;14.376;2023-05-07T07:44:29;11.23;;;10.30;;
16442;SDS011;8331;51.654;14.376;2023-05-07T07:47:00;11.60;;;10.40;;
16442;SDS011;8331;51.654;14.376;2023-05-07T07:49:27;11.73;;;10.50;;
16442;SDS011;8331;51.654;14.376;2023-05-07T07:51:56;11.07;;;9.73;;
16442;SDS011;8331;51.654;14.376;2023-05-07T07:54:26;11.07;;;9.97;;
16442;SDS011;8331;51.654;14.376;2023-05-07T07:56:52;11.00;;;9.50;;
16442;SDS011;8331;51.654;14.376;2023-05-07T07:59:19;12.23;;;9.70;;
16442;SDS011;8331;51.654;14.376;2023-05-07T08:01:48;10.77;;;9.03;;
16442;SDS011;8331;51.654;14.376;2023-05-07T08:04:20;11.43;;;10.17;;
16442;SDS011;8331;51.654;14.376;2023-05-07T08:06:47;10.47;;;9.37;;
16442;SDS011;8331;51.654;14.376;2023-05-07T08:09:14;10.33;;;9.50;;
16442;SDS011;8331;51.654;14.376;2023-05-07T08:11:41;10.47;;;9.47;;
16442;SDS011;8331;51.654;14.376;2023-05-07T08:14:08;12.27;;;11.07;;
16442;SDS011;8331;51.654;14.376;2023-05-07T08:16:34;10.67;;;9.77;;
16442;SDS011;8331;51.654;14.376;2023-05-07T08:19:01;10.03;;;9.23;;
16442;SDS011;8331;51.654;14.376;2023-05-07T08:21:28;10.30;;;9.50;;
16442;SDS011;8331;51.654;14.376;2023-05-07T08:23:54;11.70;;;10.60;;
16442;SDS011;8331;51.654;14.376;2023-05-07T08:26:21;10.80;;;9.90;;
16442;SDS011;8331;51.654;14.376;2023-05-07T08:28:49;14.43;;;11.03;;
16442;SDS011;8331;51.654;14.376;2023-05-07T08:31:15;10.20;;;9.30;;
16442;SDS011;8331;51.654;14.376;2023-05-07T08:33:44;9.87;;;9.07;;
16442;SDS011;8331;51.654;14.376;2023-05-07T08:36:11;9.63;;;8.80;;
16442;SDS011;8331;51.654;14.376;2023-05-07T08:38:37;8.60;;;7.80;;
16442;SDS011;8331;51.654;14.376;2023-05-07T08:41:04;8.83;;;7.73;;
16442;SDS011;8331;51.654;14.376;2023-05-07T08:43:34;8.60;;;7.73;;
16442;SDS011;8331;51.654;14.376;2023-05-07T08:46:02;8.67;;;7.97;;
16442;SDS011;8331;51.654;14.376;2023-05-07T08:48:35;8.23;;;7.43;;
16442;SDS011;8331;51.654;14.376;2023-05-07T08:51:06;8.57;;;7.87;;
16442;SDS011;8331;51.654;14.376;2023-05-07T08:53:34;7.00;;;6.40;;
16442;SDS011;8331;51.654;14.376;2023-05-07T08:56:01;5.83;;;5.43;;
16442;SDS011;8331;51.654;14.376;2023-05-07T08:58:29;6.77;;;6.20;;
16442;SDS011;8331;51.654;14.376;2023-05-07T09:00:56;7.20;;;6.60;;
16442;SDS011;8331;51.654;14.376;2023-05-07T09:03:23;5.97;;;5.33;;
16442;SDS011;8331;51.654;14.376;2023-05-07T09:05:52;6.20;;;5.70;;
16442;SDS011;8331;51.654;14.376;2023-05-07T09:08:23;5.70;;;5.30;;
16442;SDS011;8331;51.654;14.376;2023-05-07T09:10:51;6.30;;;4.90;;
16442;SDS011;8331;51.654;14.376;2023-05-07T09:13:18;4.97;;;4.57;;
16442;SDS011;8331;51.654;14.376;2023-05-07T09:15:45;5.23;;;4.90;;
16442;SDS011;8331;51.654;14.376;2023-05-07T09:18:12;6.27;;;5.67;;
16442;SDS011;8331;51.654;14.376;2023-05-07T09:20:43;5.53;;;5.13;;
16442;SDS011;8331;51.654;14.376;2023-05-07T09:23:09;4.93;;;4.60;;
16442;SDS011;8331;51.654;14.376;2023-05-07T09:25:36;5.00;;;4.60;;
16442;SDS011;8331;51.654;14.376;2023-05-07T09:28:10;7.53;;;5.13;;
16442;SDS011;8331;51.654;14.376;2023-05-07T09:30:37;4.57;;;4.27;;
16442;SDS011;8331;51.654;14.376;2023-05-07T09:33:06;4.60;;;4.30;;
16442;SDS011;8331;51.654;14.376;2023-05-07T09:35:37;4.87;;;4.57;;
16442;SDS011;8331;51.654;14.376;2023-05-07T09:38:08;5.13;;;4.63;;
16442;SDS011;8331;51.654;14.376;2023-05-07T09:40:35;4.10;;;3.90;;
16442;SDS011;8331;51.654;14.376;2023-05-07T09:43:10;4.47;;;4.17;;
16442;SDS011;8331;51.654;14.376;2023-05-07T09:45:49;4.33;;;3.93;;
16442;SDS011;8331;51.654;14.376;2023-05-07T09:48:20;4.70;;;4.30;;
16442;SDS011;8331;51.654;14.376;2023-05-07T09:50:49;5.00;;;4.50;;
16442;SDS011;8331;51.654;14.376;2023-05-07T09:53:21;5.67;;;5.10;;
16442;SDS011;8331;51.654;14.376;2023-05-07T09:55:49;5.53;;;5.03;;
16442;SDS011;8331;51.654;14.376;2023-05-07T09:58:18;5.33;;;4.97;;
16442;SDS011;8331;51.654;14.376;2023-05-07T10:00:45;5.30;;;4.90;;
16442;SDS011;8331;51.654;14.376;2023-05-07T10:03:15;5.23;;;4.87;;
16442;SDS011;8331;51.654;14.376;2023-05-07T10:05:52;5.10;;;4.70;;
16442;SDS011;8331;51.654;14.376;2023-05-07T10:08:20;5.93;;;5.30;;
16442;SDS011;8331;51.654;14.376;2023-05-07T10:10:50;5.50;;;5.20;;
16442;SDS011;8331;51.654;14.376;2023-05-07T10:13:21;5.83;;;5.43;;
16442;SDS011;8331;51.654;14.376;2023-05-07T10:15:51;5.93;;;5.53;;
16442;SDS011;8331;51.654;14.376;2023-05-07T10:18:19;6.33;;;5.90;;
16442;SDS011;8331;51.654;14.376;2023-05-07T10:20:51;6.70;;;6.10;;
16442;SDS011;8331;51.654;14.376;2023-05-07T10:23:22;6.57;;;6.07;;
16442;SDS011;8331;51.654;14.376;2023-05-07T10:25:52;6.60;;;5.90;;
16442;SDS011;8331;51.654;14.376;2023-05-07T10:28:28;6.00;;;5.60;;
16442;SDS011;8331;51.654;14.376;2023-05-07T10:31:02;6.07;;;5.67;;
16442;SDS011;8331;51.654;14.376;2023-05-07T10:33:39;7.00;;;6.50;;
16442;SDS011;8331;51.654;14.376;2023-05-07T10:36:07;6.03;;;5.57;;
16442;SDS011;8331;51.654;14.376;2023-05-07T10:38:34;6.03;;;5.63;;
16442;SDS011;8331;51.654;14.376;2023-05-07T10:41:01;5.73;;;5.23;;
16442;SDS011;8331;51.654;14.376;2023-05-07T10:43:39;5.53;;;5.13;;
16442;SDS011;8331;51.654;14.376;2023-05-07T10:51:30;5.80;;;5.40;;
16442;SDS011;8331;51.654;14.376;2023-05-07T10:56:40;5.73;;;5.23;;
16442;SDS011;8331;51.654;14.376;2023-05-07T11:01:52;5.73;;;5.23;;
16442;SDS011;8331;51.654;14.376;2023-05-07T11:04:28;5.43;;;5.03;;
16442;SDS011;8331;51.654;14.376;2023-05-07T11:15:06;5.13;;;4.73;;
16442;SDS011;8331;51.654;14.376;2023-05-07T11:17:35;5.60;;;5.17;;
16442;SDS011;8331;51.654;14.376;2023-05-07T11:20:18;5.50;;;5.10;;
16442;SDS011;8331;51.654;14.376;2023-05-07T11:22:50;5.63;;;5.23;;
16442;SDS011;8331;51.654;14.376;2023-05-07T11:25:31;5.10;;;4.70;;
16442;SDS011;8331;51.654;14.376;2023-05-07T11:28:07;5.10;;;4.70;;
16442;SDS011;8331;51.654;14.376;2023-05-07T11:30:42;5.53;;;5.03;;
16442;SDS011;8331;51.654;14.376;2023-05-07T11:33:11;5.50;;;5.00;;
16442;SDS011;8331;51.654;14.376;2023-05-07T11:35:39;4.83;;;4.50;;
16442;SDS011;8331;51.654;14.376;2023-05-07T11:38:10;5.53;;;4.87;;
16442;SDS011;8331;51.654;14.376;2023-05-07T11:41:00;5.20;;;4.70;;
16442;SDS011;8331;51.654;14.376;2023-05-07T11:43:27;5.67;;;5.17;;
16442;SDS011;8331;51.654;14.376;2023-05-07T11:45:53;5.47;;;4.97;;
16442;SDS011;8331;51.654;14.376;2023-05-07T11:48:20;5.07;;;4.77;;
16442;SDS011;8331;51.654;14.376;2023-05-07T11:50:51;5.07;;;4.77;;
16442;SDS011;8331;51.654;14.376;2023-05-07T11:53:19;5.60;;;5.20;;
16442;SDS011;8331;51.654;14.376;2023-05-07T11:55:46;5.83;;;5.43;;
16442;SDS011;8331;51.654;14.376;2023-05-07T11:58:18;5.50;;;5.10;;
16442;SDS011;8331;51.654;14.376;2023-05-07T12:00:53;5.73;;;5.30;;
16442;SDS011;8331;51.654;14.376;2023-05-07T12:03:20;5.67;;;5.03;;
16442;SDS011;8331;51.654;14.376;2023-05-07T12:05:47;5.53;;;5.10;;
16442;SDS011;8331;51.654;14.376;2023-05-07T12:08:14;5.67;;;5.20;;
16442;SDS011;8331;51.654;14.376;2023-05-07T12:10:42;5.40;;;5.03;;
16442;SDS011;8331;51.654;14.376;2023-05-07T12:15:42;5.37;;;4.97;;
16442;SDS011;8331;51.654;14.376;2023-05-07T12:18:10;5.53;;;5.13;;
16442;SDS011;8331;51.654;14.376;2023-05-07T12:20:37;5.47;;;5.07;;
16442;SDS011;8331;51.654;14.376;2023-05-07T12:23:04;5.47;;;5.07;;
16442;SDS011;8331;51.654;14.376;2023-05-07T12:25:31;5.50;;;5.10;;
16442;SDS011;8331;51.654;14.376;2023-05-07T12:27:59;5.70;;;5.20;;
16442;SDS011;8331;51.654;14.376;2023-05-07T12:30:26;5.13;;;4.73;;
16442;SDS011;8331;51.654;14.376;2023-05-07T12:32:53;5.57;;;5.17;;
16442;SDS011;8331;51.654;14.376;2023-05-07T12:35:30;5.40;;;5.00;;
16442;SDS011;8331;51.654;14.376;2023-05-07T12:38:00;5.50;;;5.10;;
16442;SDS011;8331;51.654;14.376;2023-05-07T12:40:40;5.47;;;5.17;;
16442;SDS011;8331;51.654;14.376;2023-05-07T12:43:07;5.30;;;4.90;;
16442;SDS011;8331;51.654;14.376;2023-05-07T12:45:37;5.07;;;4.77;;
16442;SDS011;8331;51.654;14.376;2023-05-07T12:48:07;5.37;;;4.97;;
16442;SDS011;8331;51.654;14.376;2023-05-07T12:50:35;4.60;;;4.30;;
16442;SDS011;8331;51.654;14.376;2023-05-07T12:53:05;4.93;;;4.63;;
16442;SDS011;8331;51.654;14.376;2023-05-07T12:55:32;5.10;;;4.70;;
16442;SDS011;8331;51.654;14.376;2023-05-07T12:58:06;4.87;;;4.53;;
16442;SDS011;8331;51.654;14.376;2023-05-07T13:00:36;5.03;;;4.73;;
16442;SDS011;8331;51.654;14.376;2023-05-07T13:03:03;6.33;;;5.83;;
16442;SDS011;8331;51.654;14.376;2023-05-07T13:05:31;5.53;;;5.00;;
16442;SDS011;8331;51.654;14.376;2023-05-07T13:07:57;5.83;;;5.33;;
16442;SDS011;8331;51.654;14.376;2023-05-07T13:10:24;5.73;;;5.33;;
16442;SDS011;8331;51.654;14.376;2023-05-07T13:12:51;5.17;;;4.87;;
16442;SDS011;8331;51.654;14.376;2023-05-07T13:15:18;5.50;;;5.13;;
16442;SDS011;8331;51.654;14.376;2023-05-07T13:17:45;5.10;;;4.80;;
16442;SDS011;8331;51.654;14.376;2023-05-07T13:20:12;5.07;;;4.57;;
16442;SDS011;8331;51.654;14.376;2023-05-07T13:22:41;5.17;;;4.87;;
16442;SDS011;8331;51.654;14.376;2023-05-07T13:25:08;4.70;;;4.30;;
16442;SDS011;8331;51.654;14.376;2023-05-07T13:27:35;5.20;;;4.70;;
16442;SDS011;8331;51.654;14.376;2023-05-07T13:30:04;5.07;;;4.60;;
16442;SDS011;8331;51.654;14.376;2023-05-07T13:32:30;5.17;;;4.87;;
16442;SDS011;8331;51.654;14.376;2023-05-07T13:34:58;5.30;;;5.00;;
16442;SDS011;8331;51.654;14.376;2023-05-07T13:37:24;4.90;;;4.60;;
16442;SDS011;8331;51.654;14.376;2023-05-07T13:39:51;4.50;;;4.20;;
16442;SDS011;8331;51.654;14.376;2023-05-07T13:42:17;4.57;;;4.33;;
16442;SDS011;8331;51.654;14.376;2023-05-07T13:44:44;4.93;;;4.63;;
16442;SDS011;8331;51.654;14.376;2023-05-07T13:47:11;5.07;;;4.77;;
16442;SDS011;8331;51.654;14.376;2023-05-07T13:49:38;4.73;;;4.43;;
16442;SDS011;8331;51.654;14.376;2023-05-07T13:52:04;4.67;;;4.37;;
16442;SDS011;8331;51.654;14.376;2023-05-07T13:54:31;4.50;;;4.20;;
16442;SDS011;8331;51.654;14.376;2023-05-07T13:56:58;4.10;;;3.80;;
16442;SDS011;8331;51.654;14.376;2023-05-07T13:59:24;4.70;;;4.40;;
16442;SDS011;8331;51.654;14.376;2023-05-07T14:01:51;5.00;;;4.70;;
16442;SDS011;8331;51.654;14.376;2023-05-07T14:04:17;5.03;;;4.73;;
16442;SDS011;8331;51.654;14.376;2023-05-07T14:06:44;5.57;;;5.07;;
16442;SDS011;8331;51.654;14.376;2023-05-07T14:09:10;4.80;;;4.50;;
16442;SDS011;8331;51.654;14.376;2023-05-07T14:11:39;5.40;;;5.10;;
16442;SDS011;8331;51.654;14.376;2023-05-07T14:14:06;5.33;;;4.93;;
16442;SDS011;8331;51.654;14.376;2023-05-07T14:16:32;5.40;;;5.00;;
16442;SDS011;8331;51.654;14.376;2023-05-07T14:18:59;5.73;;;5.33;;
16442;SDS011;8331;51.654;14.376;2023-05-07T14:21:26;5.13;;;4.83;;
16442;SDS011;8331;51.654;14.376;2023-05-07T14:23:52;5.67;;;5.20;;
16442;SDS011;8331;51.654;14.376;2023-05-07T14:26:19;5.60;;;5.17;;
16442;SDS011;8331;51.654;14.376;2023-05-07T14:28:47;6.13;;;5.63;;
16442;SDS011;8331;51.654;14.376;2023-05-07T14:31:13;5.60;;;5.20;;
16442;SDS011;8331;51.654;14.376;2023-05-07T14:33:40;5.17;;;4.80;;
16442;SDS011;8331;51.654;14.376;2023-05-07T14:36:07;6.07;;;5.60;;
16442;SDS011;8331;51.654;14.376;2023-05-07T14:38:34;6.27;;;5.23;;
16442;SDS011;8331;51.654;14.376;2023-05-07T14:41:01;5.93;;;5.57;;
16442;SDS011;8331;51.654;14.376;2023-05-07T14:43:27;5.57;;;5.17;;
16442;SDS011;8331;51.654;14.376;2023-05-07T14:45:54;6.40;;;5.90;;
16442;SDS011;8331;51.654;14.376;2023-05-07T14:48:20;6.13;;;5.67;;
16442;SDS011;8331;51.654;14.376;2023-05-07T14:50:47;5.40;;;5.00;;
16442;SDS011;8331;51.654;14.376;2023-05-07T14:53:14;5.87;;;5.47;;
16442;SDS011;8331;51.654;14.376;2023-05-07T14:55:41;6.05;;;5.65;;
16442;SDS011;8331;51.654;14.376;2023-05-07T14:58:08;5.43;;;5.13;;
16442;SDS011;8331;51.654;14.376;2023-05-07T15:00:34;5.67;;;5.27;;
16442;SDS011;8331;51.654;14.376;2023-05-07T15:03:05;5.00;;;4.67;;